createdAt,value
2022-09-24T00:02:00.947Z,88.01
2022-09-24T00:04:33.192Z,88.01
2022-09-24T00:07:05.661Z,87.73
2022-09-24T00:09:37.540Z,87.86
2022-09-24T00:12:13.109Z,87.92
2022-09-24T00:14:45.429Z,87.70
2022-09-24T00:17:17.329Z,87.52
2022-09-24T00:19:49.514Z,87.84
2022-09-24T00:22:21.316Z,87.72
2022-09-24T00:25:10.747Z,87.75
2022-09-24T00:27:42.943Z,87.80
2022-09-24T00:30:15.718Z,87.68
2022-09-24T00:32:47.563Z,87.63
2022-09-24T00:35:19.480Z,87.53
2022-09-24T00:37:51.516Z,87.40
2022-09-24T00:40:28.019Z,87.54
2022-09-24T00:43:00.256Z,87.44
2022-09-24T00:45:32.904Z,87.39
2022-09-24T00:48:04.838Z,87.08
2022-09-24T00:50:37.889Z,87.24
2022-09-24T00:53:13.339Z,87.03
2022-09-24T00:55:49.423Z,87.02
2022-09-24T00:58:23.205Z,86.81
2022-09-24T01:01:00.590Z,86.82
2022-09-24T01:03:41.040Z,86.72
2022-09-24T01:06:14.633Z,86.75
2022-09-24T01:08:47.493Z,86.82
2022-09-24T01:11:37.279Z,86.76
2022-09-24T01:14:45.176Z,86.73
2022-09-24T01:17:28.858Z,86.67
2022-09-24T01:20:29.957Z,86.74
2022-09-24T01:23:29.770Z,86.88
2022-09-24T01:26:20.179Z,87.00
2022-09-24T01:29:06.475Z,86.91
2022-09-24T01:31:46.941Z,86.95
2022-09-24T01:34:29.577Z,86.91
2022-09-24T01:37:03.722Z,86.98
2022-09-24T01:39:38.015Z,86.92
2022-09-24T01:42:12.210Z,86.84
2022-09-24T01:44:45.369Z,86.92
2022-09-24T01:47:23.556Z,87.05
2022-09-24T01:49:55.542Z,87.21
2022-09-24T01:52:32.921Z,87.18
2022-09-24T01:55:07.703Z,86.93
2022-09-24T01:57:44.947Z,87.09
2022-09-24T02:00:18.994Z,87.31
2022-09-24T02:02:55.838Z,87.31
2022-09-24T02:05:33.354Z,87.06
2022-09-24T02:08:10.658Z,87.33
2022-09-24T02:10:47.651Z,87.31
2022-09-24T02:13:24.825Z,87.47
2022-09-24T02:16:00.807Z,87.56
2022-09-24T02:18:37.974Z,87.64
2022-09-24T02:21:14.131Z,87.60
2022-09-24T02:23:49.063Z,87.68
2022-09-24T02:26:21.131Z,87.72
2022-09-24T02:28:53.563Z,87.86
2022-09-24T02:31:30.318Z,87.88
2022-09-24T02:34:23.729Z,87.83
2022-09-24T02:37:00.285Z,87.57
2022-09-24T02:39:32.782Z,87.49
2022-09-24T02:42:06.545Z,87.27
2022-09-24T02:44:38.676Z,87.58
2022-09-24T02:47:10.718Z,87.31
2022-09-24T02:49:42.674Z,87.51
2022-09-24T02:52:14.623Z,87.37
2022-09-24T02:54:46.395Z,87.48
2022-09-24T02:57:18.647Z,87.44
2022-09-24T02:59:50.486Z,87.34
2022-09-24T03:02:22.472Z,87.16
2022-09-24T03:04:55.834Z,87.34
2022-09-24T03:07:27.783Z,87.11
2022-09-24T03:09:59.646Z,87.15
2022-09-24T03:12:31.474Z,87.07
2022-09-24T03:15:03.329Z,87.16
2022-09-24T03:17:35.216Z,87.07
2022-09-24T03:20:08.497Z,87.10
2022-09-24T03:22:40.580Z,86.98
2022-09-24T03:25:13.191Z,87.43
2022-09-24T03:27:45.223Z,87.24
2022-09-24T03:30:35.041Z,87.14
2022-09-24T03:33:07.099Z,87.10
2022-09-24T03:35:39.064Z,87.13
2022-09-24T03:38:10.994Z,87.18
2022-09-24T03:40:42.897Z,87.25
2022-09-24T03:43:15.017Z,87.23
2022-09-24T03:45:46.979Z,87.35
2022-09-24T03:48:19.816Z,87.26
2022-09-24T03:50:52.030Z,87.35
2022-09-24T03:53:24.504Z,87.44
2022-09-24T03:55:59.848Z,87.41
2022-09-24T03:58:34.684Z,87.62
2022-09-24T04:01:07.413Z,87.56
2022-09-24T04:03:40.673Z,87.54
2022-09-24T04:06:12.671Z,87.57
2022-09-24T04:08:44.567Z,87.64
2022-09-24T04:11:16.715Z,87.73
2022-09-24T04:13:48.939Z,87.66
2022-09-24T04:16:23.823Z,87.62
2022-09-24T04:18:56.362Z,87.73
2022-09-24T04:21:28.315Z,87.76
2022-09-24T04:24:00.393Z,87.68
2022-09-24T04:26:33.383Z,87.66
2022-09-24T04:29:06.860Z,87.57
2022-09-24T04:31:39.875Z,87.52
2022-09-24T04:34:12.648Z,87.49
2022-09-24T04:36:44.484Z,87.68
2022-09-24T04:39:16.946Z,87.67
2022-09-24T04:41:48.854Z,87.44
2022-09-24T04:44:21.026Z,87.42
2022-09-24T04:46:53.157Z,87.54
2022-09-24T04:49:25.215Z,87.49
2022-09-24T04:51:58.312Z,87.46
2022-09-24T04:54:30.542Z,87.52
2022-09-24T04:57:05.629Z,87.37
2022-09-24T04:59:39.995Z,87.29
2022-09-24T05:02:12.122Z,87.35
2022-09-24T05:04:44.772Z,87.27
2022-09-24T05:07:17.141Z,87.49
2022-09-24T05:09:49.478Z,87.31
2022-09-24T05:12:21.985Z,87.28
2022-09-24T05:14:54.027Z,87.26
2022-09-24T05:17:26.171Z,87.39
2022-09-24T05:19:59.713Z,87.12
2022-09-24T05:22:31.947Z,87.30
2022-09-24T05:25:04.107Z,87.24
2022-09-24T05:27:36.500Z,87.15
2022-09-24T05:30:10.701Z,87.40
2022-09-24T05:32:43.364Z,87.40
2022-09-24T05:35:15.575Z,87.45
2022-09-24T05:37:49.818Z,87.56
2022-09-24T05:40:40.055Z,87.46
2022-09-24T05:43:12.041Z,87.45
2022-09-24T05:45:45.541Z,87.58
2022-09-24T05:48:17.630Z,87.51
2022-09-24T05:50:49.496Z,87.66
2022-09-24T05:53:21.560Z,87.68
2022-09-24T05:55:53.616Z,87.61
2022-09-24T05:58:26.421Z,87.67
2022-09-24T06:00:59.682Z,87.71
2022-09-24T06:03:31.973Z,87.65
2022-09-24T06:06:04.388Z,87.66
2022-09-24T06:08:36.553Z,87.67
2022-09-24T06:11:09.642Z,87.62
2022-09-24T06:13:41.467Z,87.52
2022-09-24T06:16:14.210Z,87.59
2022-09-24T06:18:46.495Z,87.61
2022-09-24T06:21:19.126Z,87.69
2022-09-24T06:23:51.398Z,87.80
2022-09-24T06:26:26.387Z,87.63
2022-09-24T06:29:03.716Z,87.62
2022-09-24T06:31:37.025Z,87.56
2022-09-24T06:34:09.376Z,87.34
2022-09-24T06:36:41.340Z,87.50
2022-09-24T06:39:13.263Z,87.55
2022-09-24T06:41:45.098Z,87.61
2022-09-24T06:44:21.225Z,87.64
2022-09-24T06:46:53.763Z,87.49
2022-09-24T06:49:27.994Z,87.50
2022-09-24T06:52:04.621Z,87.46
2022-09-24T06:54:36.889Z,87.41
2022-09-24T06:57:09.969Z,87.41
2022-09-24T06:59:41.848Z,87.36
2022-09-24T07:02:13.820Z,87.38
2022-09-24T07:04:45.764Z,87.51
2022-09-24T07:07:34.369Z,87.38
2022-09-24T07:10:08.759Z,87.30
2022-09-24T07:12:42.630Z,87.21
2022-09-24T07:15:14.808Z,87.25
2022-09-24T07:17:46.774Z,87.22
2022-09-24T07:20:19.284Z,87.20
2022-09-24T07:22:51.247Z,87.08
2022-09-24T07:25:23.551Z,86.92
2022-09-24T07:27:55.437Z,86.71
2022-09-24T07:30:27.399Z,86.63
2022-09-24T07:33:00.129Z,86.40
2022-09-24T07:35:32.731Z,86.43
2022-09-24T07:38:06.394Z,86.12
2022-09-24T07:40:38.434Z,85.88
2022-09-24T07:43:14.111Z,85.88
2022-09-24T07:45:46.646Z,85.65
2022-09-24T07:48:19.319Z,85.67
2022-09-24T07:50:51.485Z,85.64
2022-09-24T07:53:23.852Z,85.40
2022-09-24T07:55:59.540Z,85.20
2022-09-24T07:58:32.079Z,85.29
2022-09-24T08:01:04.036Z,85.09
2022-09-24T08:03:36.827Z,85.12
2022-09-24T08:06:10.716Z,85.10
2022-09-24T08:08:43.695Z,85.00
2022-09-24T08:11:17.261Z,84.93
2022-09-24T08:13:49.265Z,84.54
2022-09-24T08:16:22.443Z,84.44
2022-09-24T08:18:54.899Z,84.37
2022-09-24T08:21:28.727Z,84.21
2022-09-24T08:24:01.061Z,83.96
2022-09-24T08:26:32.994Z,83.94
2022-09-24T08:29:05.790Z,84.00
2022-09-24T08:31:38.525Z,84.12
2022-09-24T08:34:10.845Z,84.07
2022-09-24T08:36:43.452Z,84.02
2022-09-24T08:39:16.034Z,84.09
2022-09-24T08:42:00.550Z,83.83
2022-09-24T08:44:55.459Z,83.95
2022-09-24T08:47:38.694Z,83.59
2022-09-24T08:50:17.503Z,83.69
2022-09-24T08:53:02.504Z,83.12
2022-09-24T08:55:39.385Z,82.84
2022-09-24T08:58:33.306Z,82.29
2022-09-24T09:01:16.435Z,82.27
2022-09-24T09:03:56.295Z,81.90
2022-09-24T09:06:47.442Z,82.16
2022-09-24T09:09:21.594Z,81.99
2022-09-24T09:12:06.927Z,81.87
2022-09-24T09:14:52.123Z,81.36
2022-09-24T09:17:33.565Z,81.17
2022-09-24T09:20:13.106Z,81.20
2022-09-24T09:22:49.016Z,81.10
2022-09-24T09:25:24.957Z,81.06
2022-09-24T09:28:02.335Z,80.88
2022-09-24T09:30:43.799Z,80.86
2022-09-24T09:33:29.281Z,80.54
2022-09-24T09:36:22.592Z,80.00
2022-09-24T09:39:05.959Z,79.67
2022-09-24T09:41:42.939Z,78.99
2022-09-24T09:44:22.325Z,79.12
2022-09-24T09:47:01.725Z,79.27
2022-09-24T09:49:38.682Z,78.97
2022-09-24T09:52:17.352Z,78.52
2022-09-24T09:54:49.917Z,78.39
2022-09-24T09:57:24.313Z,78.06
2022-09-24T09:59:57.157Z,77.93
2022-09-24T10:02:31.851Z,77.63
2022-09-24T10:05:06.621Z,77.53
2022-09-24T10:07:47.685Z,77.20
2022-09-24T10:10:24.736Z,77.08
2022-09-24T10:13:08.087Z,77.19
2022-09-24T10:15:52.225Z,76.51
2022-09-24T10:18:32.934Z,75.97
2022-09-24T10:21:12.111Z,75.71
2022-09-24T10:23:48.855Z,75.45
2022-09-24T10:26:20.754Z,75.07
2022-09-24T10:29:11.687Z,74.69
2022-09-24T10:31:45.873Z,74.62
2022-09-24T10:34:28.287Z,74.27
2022-09-24T10:37:13.926Z,73.49
2022-09-24T10:39:45.966Z,72.81
2022-09-24T10:42:30.486Z,72.85
2022-09-24T10:45:04.702Z,72.97
2022-09-24T10:47:45.756Z,73.07
2022-09-24T10:50:30.825Z,72.79
2022-09-24T10:53:09.055Z,72.52
2022-09-24T10:55:49.783Z,72.35
2022-09-24T10:58:43.376Z,72.43
2022-09-24T11:01:20.497Z,72.11
2022-09-24T11:04:36.390Z,71.86
2022-09-24T11:07:35.346Z,71.23
2022-09-24T11:10:22.126Z,71.31
2022-09-24T11:13:07.465Z,70.08
2022-09-24T11:15:58.928Z,70.10
2022-09-24T11:18:39.068Z,69.15
2022-09-24T11:21:23.396Z,69.21
2022-09-24T11:24:18.834Z,68.96
2022-09-24T11:27:01.611Z,67.93
2022-09-24T11:30:00.383Z,68.09
2022-09-24T11:32:42.642Z,67.52
2022-09-24T11:35:36.600Z,67.27
2022-09-24T11:38:14.888Z,65.95
2022-09-24T11:41:01.908Z,64.92
2022-09-24T11:43:54.028Z,64.64
2022-09-24T11:46:47.447Z,64.59
2022-09-24T11:49:34.220Z,63.76
2022-09-24T11:52:11.671Z,63.62
2022-09-24T11:54:50.492Z,61.92
2022-09-24T11:57:27.163Z,61.40
2022-09-24T12:00:07.460Z,61.53
2022-09-24T12:02:45.717Z,62.45
2022-09-24T12:05:26.627Z,61.72
2022-09-24T12:08:04.233Z,61.81
2022-09-24T12:10:43.422Z,61.22
2022-09-24T12:13:21.488Z,61.38
2022-09-24T12:15:57.410Z,61.22
2022-09-24T12:18:33.633Z,61.03
2022-09-24T12:21:11.016Z,60.40
2022-09-24T12:23:46.554Z,60.64
2022-09-24T12:26:22.224Z,60.66
2022-09-24T12:29:17.413Z,60.08
2022-09-24T12:32:16.106Z,60.44
2022-09-24T12:34:55.745Z,60.08
2022-09-24T12:37:33.242Z,60.02
2022-09-24T12:40:19.353Z,59.41
2022-09-24T12:42:56.104Z,59.52
2022-09-24T12:45:28.785Z,59.81
2022-09-24T12:48:02.943Z,60.16
2022-09-24T12:50:40.452Z,59.30
2022-09-24T12:53:25.534Z,59.40
2022-09-24T12:56:04.373Z,59.14
2022-09-24T12:58:42.487Z,59.16
2022-09-24T13:01:30.566Z,59.39
2022-09-24T13:04:26.073Z,59.63
2022-09-24T13:06:58.444Z,59.33
2022-09-24T13:09:37.267Z,59.30
2022-09-24T13:12:23.319Z,59.11
2022-09-24T13:15:01.528Z,59.12
2022-09-24T13:17:36.009Z,58.94
2022-09-24T13:20:19.028Z,59.22
2022-09-24T13:22:59.752Z,59.44
2022-09-24T13:25:31.779Z,58.85
2022-09-24T13:28:19.914Z,59.07
2022-09-24T13:30:59.473Z,58.92
2022-09-24T13:33:38.036Z,58.44
2022-09-24T13:36:18.170Z,59.16
2022-09-24T13:38:57.609Z,58.84
2022-09-24T13:41:37.030Z,58.92
2022-09-24T13:44:17.197Z,59.20
2022-09-24T13:46:53.313Z,59.85
2022-09-24T13:49:27.906Z,59.96
2022-09-24T13:52:13.155Z,59.92
2022-09-24T13:54:53.486Z,59.06
2022-09-24T13:57:27.532Z,58.85
2022-09-24T14:00:20.046Z,58.87
2022-09-24T14:03:03.002Z,59.15
2022-09-24T14:05:38.530Z,59.13
2022-09-24T14:08:14.213Z,59.73
2022-09-24T14:10:48.632Z,60.04
2022-09-24T14:13:23.213Z,60.06
2022-09-24T14:15:59.137Z,60.13
2022-09-24T14:18:31.745Z,59.62
2022-09-24T14:21:10.475Z,59.74
2022-09-24T14:23:48.538Z,60.05
2022-09-24T14:26:28.769Z,60.39
2022-09-24T14:29:07.079Z,60.29
2022-09-24T14:31:48.222Z,59.71
2022-09-24T14:34:34.255Z,60.02
2022-09-24T14:37:13.344Z,59.59
2022-09-24T14:39:47.658Z,60.10
2022-09-24T14:42:27.604Z,60.84
2022-09-24T14:45:00.709Z,60.45
2022-09-24T15:12:30.817Z,62.10
2022-09-24T15:15:02.187Z,62.13
2022-09-24T15:17:32.920Z,62.29
2022-09-24T15:20:04.300Z,62.14
2022-09-24T15:22:32.938Z,62.72
2022-09-24T15:25:02.546Z,62.82
2022-09-24T15:27:33.855Z,63.13
2022-09-24T15:30:04.635Z,63.12
2022-09-24T15:32:36.102Z,63.34
2022-09-24T15:35:08.923Z,63.50
2022-09-24T15:37:40.358Z,63.56
2022-09-24T15:40:19.925Z,64.14
2022-09-24T15:42:49.021Z,64.60
2022-09-24T15:45:20.988Z,64.54
2022-09-24T15:47:50.279Z,64.31
2022-09-24T15:50:20.556Z,64.77
2022-09-24T15:52:53.360Z,64.61
2022-09-24T15:55:23.626Z,64.91
2022-09-24T15:57:52.722Z,64.83
2022-09-24T16:00:23.334Z,64.83
2022-09-24T16:02:54.724Z,64.85
2022-09-24T16:05:24.157Z,65.23
2022-09-24T16:07:52.780Z,65.65
2022-09-24T16:10:21.525Z,65.71
2022-09-24T16:12:50.182Z,65.80
2022-09-24T16:15:19.070Z,66.19
2022-09-24T16:17:49.566Z,65.67
2022-09-24T16:20:18.763Z,65.59
2022-09-24T16:22:47.457Z,65.78
2022-09-24T16:25:19.357Z,65.50
2022-09-24T16:27:47.989Z,65.55
2022-09-24T16:30:17.194Z,65.42
2022-09-24T16:32:46.586Z,65.46
2022-09-24T16:35:18.429Z,65.33
2022-09-24T16:38:19.005Z,65.43
2022-09-24T16:41:00.273Z,65.34
2022-09-24T16:43:29.100Z,65.26
2022-09-24T16:46:02.904Z,65.26
2022-09-24T16:48:32.127Z,65.42
2022-09-24T16:51:05.037Z,65.51
2022-09-24T16:53:34.349Z,65.41
2022-09-24T16:56:04.817Z,65.32
2022-09-24T16:58:34.341Z,65.57
2022-09-24T17:01:06.149Z,65.89
2022-09-24T17:03:37.099Z,65.87
2022-09-24T17:06:07.190Z,66.05
2022-09-24T17:09:14.484Z,65.93
2022-09-24T17:11:46.102Z,66.23
2022-09-24T17:14:17.978Z,66.28
2022-09-24T17:16:49.082Z,66.16
2022-09-24T17:19:17.739Z,66.28
2022-09-24T17:21:49.737Z,66.47
2022-09-24T17:24:22.004Z,66.47
2022-09-24T17:26:51.527Z,66.60
2022-09-24T17:29:28.866Z,66.62
2022-09-24T17:32:00.725Z,66.79
2022-09-24T17:34:29.460Z,66.69
2022-09-24T17:36:59.222Z,66.99
2022-09-24T17:39:30.106Z,66.98
2022-09-24T17:41:58.636Z,67.00
2022-09-24T17:44:27.250Z,67.06
2022-09-24T17:46:56.594Z,67.08
2022-09-24T17:49:25.560Z,67.43
2022-09-24T17:51:54.074Z,67.72
2022-09-24T17:54:23.728Z,67.72
2022-09-24T17:56:52.527Z,67.74
2022-09-24T17:59:25.729Z,67.89
2022-09-24T18:01:55.431Z,68.11
2022-09-24T18:04:27.648Z,67.99
2022-09-24T18:06:56.346Z,68.21
2022-09-24T18:09:25.307Z,68.15
2022-09-24T18:11:53.879Z,68.12
2022-09-24T18:14:28.538Z,68.05
2022-09-24T18:16:59.500Z,68.42
2022-09-24T18:19:28.762Z,68.38
2022-09-24T18:21:59.408Z,68.38
2022-09-24T18:24:28.424Z,68.68
2022-09-24T18:26:56.874Z,68.57
2022-09-24T18:29:25.608Z,68.58
2022-09-24T18:33:18.213Z,68.21
2022-09-24T18:35:25.113Z,68.38
2022-09-24T18:50:31.303Z,67.94
2022-09-24T18:53:00.019Z,67.90
2022-09-24T18:55:29.868Z,68.13
2022-09-24T18:57:59.586Z,67.90
2022-09-24T19:00:49.020Z,68.02
2022-09-24T19:03:18.527Z,67.98
2022-09-24T19:05:51.254Z,67.74
2022-09-24T19:08:20.724Z,68.09
2022-09-24T19:10:52.751Z,68.16
2022-09-24T19:13:26.140Z,67.98
2022-09-24T19:15:55.216Z,68.12
2022-09-24T19:18:23.909Z,68.17
2022-09-24T19:20:52.815Z,68.26
2022-09-24T19:23:22.648Z,68.33
2022-09-24T19:25:51.455Z,68.55
2022-09-24T19:28:20.197Z,68.73
2022-09-24T19:30:51.225Z,68.53
2022-09-24T19:33:20.027Z,68.70
2022-09-24T19:35:55.253Z,68.49
2022-09-24T19:38:25.206Z,68.77
2022-09-24T19:40:58.670Z,68.68
2022-09-24T19:43:28.254Z,68.71
2022-09-24T19:45:58.989Z,68.84
2022-09-24T19:48:29.460Z,68.67
2022-09-24T19:51:08.089Z,69.04
2022-09-24T19:53:37.017Z,69.15
2022-09-24T19:56:10.548Z,69.20
2022-09-24T19:58:39.229Z,69.43
2022-09-24T20:01:16.176Z,69.72
2022-09-24T20:03:46.638Z,70.02
2022-09-24T20:06:17.660Z,70.16
2022-09-24T20:08:46.718Z,70.46
2022-09-24T20:11:19.771Z,70.43
2022-09-24T20:13:50.154Z,70.66
2022-09-24T20:16:20.331Z,70.72
2022-09-24T20:18:50.374Z,71.10
2022-09-24T20:21:19.439Z,71.35
2022-09-24T20:23:48.839Z,71.20
2022-09-24T20:26:36.010Z,71.46
2022-09-24T20:29:06.749Z,71.36
2022-09-24T20:31:35.445Z,71.42
2022-09-24T20:34:04.119Z,71.47
2022-09-24T20:36:32.827Z,71.77
2022-09-24T20:39:03.087Z,71.78
2022-09-24T20:41:31.676Z,71.71
2022-09-24T20:44:00.255Z,71.88
2022-09-24T20:46:29.312Z,71.92
2022-09-24T20:48:59.893Z,71.93
2022-09-24T20:51:30.626Z,71.88
2022-09-24T20:54:00.128Z,72.09
2022-09-24T20:56:30.252Z,72.21
2022-09-24T20:59:00.354Z,72.19
2022-09-24T21:01:29.043Z,72.23
2022-09-24T21:03:57.801Z,72.40
2022-09-24T21:06:26.452Z,72.48
2022-09-24T21:08:57.753Z,72.44
2022-09-24T21:11:28.047Z,72.67
2022-09-24T21:13:59.981Z,72.77
2022-09-24T21:16:30.747Z,72.62
2022-09-24T21:19:00.637Z,72.98
2022-09-24T21:21:31.226Z,73.10
2022-09-24T21:24:01.300Z,73.31
2022-09-24T21:26:31.170Z,73.37
2022-09-24T21:29:02.591Z,73.26
2022-09-24T21:31:33.638Z,73.33
2022-09-24T21:34:04.943Z,73.24
2022-09-24T21:36:42.874Z,73.13
2022-09-24T21:39:16.452Z,73.45
2022-09-24T21:41:49.226Z,73.41
2022-09-24T21:44:18.769Z,73.44
2022-09-24T21:46:51.682Z,73.62
2022-09-24T21:49:20.685Z,73.61
2022-09-24T21:51:50.102Z,73.74
2022-09-24T21:54:19.189Z,73.77
2022-09-24T21:56:48.176Z,74.16
2022-09-24T21:59:35.211Z,74.01
2022-09-24T22:02:04.742Z,73.95
2022-09-24T22:04:36.886Z,73.84
2022-09-24T22:07:05.700Z,74.03
2022-09-24T22:09:34.576Z,74.12
2022-09-24T22:12:04.381Z,74.28
2022-09-24T22:14:34.128Z,74.04
2022-09-24T22:17:03.371Z,74.03
2022-09-24T22:19:32.028Z,74.11
2022-09-24T22:22:00.455Z,73.99
2022-09-24T22:24:29.365Z,73.99
2022-09-24T22:26:58.471Z,74.05
2022-09-24T22:29:27.118Z,74.14
2022-09-24T22:31:55.598Z,74.06
2022-09-24T22:34:42.730Z,74.23
2022-09-24T22:37:11.414Z,74.28
2022-09-24T22:39:39.885Z,74.27
2022-09-24T22:42:08.558Z,74.23
2022-09-24T22:44:36.997Z,74.23
2022-09-24T22:47:05.688Z,74.28
2022-09-24T22:49:36.553Z,74.28
2022-09-24T22:52:05.098Z,74.31
2022-09-24T22:54:33.748Z,74.33
2022-09-24T22:57:02.206Z,74.28
2022-09-24T22:59:31.032Z,74.23
2022-09-24T23:01:59.427Z,74.35
2022-09-24T23:04:27.944Z,74.41
2022-09-24T23:06:56.431Z,74.24
2022-09-24T23:09:25.790Z,74.32
2022-09-24T23:11:56.012Z,74.65
2022-09-24T23:14:24.560Z,74.50
2022-09-24T23:16:53.020Z,74.49
2022-09-24T23:19:21.499Z,74.59
2022-09-24T23:21:51.230Z,74.35
2022-09-24T23:24:21.308Z,74.48
2022-09-24T23:26:50.520Z,74.70
2022-09-24T23:29:18.973Z,74.71
2022-09-24T23:31:47.586Z,74.62
2022-09-24T23:34:16.080Z,74.59
2022-09-24T23:36:45.605Z,74.78
2022-09-24T23:39:14.383Z,74.78
2022-09-24T23:41:44.000Z,74.69
2022-09-24T23:44:12.986Z,74.83
2022-09-24T23:46:41.496Z,74.71
2022-09-24T23:49:10.203Z,74.61
2022-09-24T23:51:38.628Z,74.73
2022-09-24T23:54:07.393Z,74.61
2022-09-24T23:56:35.881Z,74.89
2022-09-24T23:59:04.783Z,74.87
